createdAt,value
2022-11-29T21:05:22.766Z,923.00
2022-11-29T21:05:57.066Z,840.00
2022-11-29T21:06:28.262Z,895.00
2022-11-29T21:07:01.926Z,858.00
2022-11-29T21:07:36.691Z,839.00
2022-11-29T21:08:29.026Z,856.00
2022-11-29T21:10:25.368Z,976.00
2022-11-29T21:10:37.080Z,920.00
2022-11-29T21:10:47.775Z,897.00
2022-11-29T21:10:58.495Z,882.00
2022-11-29T21:11:09.195Z,879.00
2022-11-29T21:11:41.341Z,898.00
2022-11-29T21:11:51.527Z,895.00
2022-11-29T21:12:02.226Z,884.00
2022-11-29T21:12:13.678Z,875.00
2022-11-29T21:12:23.874Z,863.00
2022-11-29T21:12:34.580Z,862.00
2022-11-29T21:12:45.267Z,859.00
2022-11-29T21:12:55.964Z,855.00
2022-11-29T21:13:06.640Z,857.00
2022-11-29T21:13:17.345Z,866.00
2022-11-29T21:13:28.036Z,874.00
2022-11-29T21:13:38.732Z,880.00
2022-11-29T21:13:49.420Z,883.00
2022-11-29T21:14:00.132Z,882.00
2022-11-29T21:14:10.823Z,874.00
2022-11-29T21:14:21.506Z,814.00
2022-11-29T21:14:32.181Z,817.00
2022-11-29T21:14:43.030Z,817.00
2022-11-29T21:14:53.737Z,823.00
2022-11-29T21:15:04.475Z,831.00
2022-11-29T21:15:15.208Z,854.00
2022-11-29T21:15:25.944Z,866.00
2022-11-29T21:15:36.676Z,868.00
2022-11-29T21:15:47.476Z,858.00
2022-11-29T21:15:58.242Z,865.00
2022-11-29T21:16:08.978Z,918.00
2022-11-29T21:16:19.752Z,937.00
2022-11-29T21:16:30.509Z,942.00
2022-11-29T21:16:41.220Z,943.00
2022-11-29T21:16:51.961Z,935.00
2022-11-29T21:17:02.689Z,928.00
2022-11-29T21:17:13.367Z,924.00
2022-11-29T21:17:26.520Z,922.00
2022-11-29T21:17:36.295Z,917.00
2022-11-29T21:17:45.484Z,912.00
2022-11-29T21:17:56.231Z,909.00
2022-11-29T21:18:06.972Z,898.00
2022-11-29T21:18:17.712Z,871.00
2022-11-29T21:18:28.439Z,854.00
2022-11-29T21:18:39.178Z,852.00
2022-11-29T21:18:49.908Z,850.00
2022-11-29T21:19:00.640Z,854.00
2022-11-29T21:19:11.384Z,859.00
2022-11-29T21:19:22.116Z,865.00
2022-11-29T21:19:32.848Z,871.00
2022-11-29T21:19:43.548Z,927.00
2022-11-29T21:19:54.222Z,912.00
2022-11-29T21:20:04.901Z,899.00
2022-11-29T21:20:15.644Z,885.00
2022-11-29T21:20:26.343Z,877.00
2022-11-29T21:20:37.021Z,865.00
2022-11-29T21:20:47.712Z,858.00
2022-11-29T21:20:58.456Z,861.00
2022-11-29T21:21:09.199Z,873.00
2022-11-29T21:21:19.940Z,887.00
2022-11-29T21:21:30.671Z,895.00
2022-11-29T21:21:41.405Z,900.00
2022-11-29T21:21:52.157Z,907.00
2022-11-29T21:22:02.888Z,906.00
2022-11-29T21:22:13.627Z,902.00
2022-11-29T21:22:24.372Z,892.00
2022-11-29T21:22:35.105Z,871.00
2022-11-29T21:22:45.836Z,868.00
2022-11-29T21:22:56.577Z,872.00
2022-11-29T21:23:07.317Z,880.00
2022-11-29T21:23:18.020Z,883.00
2022-11-29T21:23:28.693Z,884.00
2022-11-29T21:23:39.437Z,885.00
2022-11-29T21:23:50.136Z,886.00
2022-11-29T21:24:00.816Z,888.00
2022-11-29T21:24:11.504Z,891.00
2022-11-29T21:24:22.209Z,895.00
2022-11-29T21:24:32.902Z,899.00
2022-11-29T21:24:43.860Z,906.00
2022-11-29T21:24:54.261Z,912.00
2022-11-29T21:25:04.996Z,916.00
2022-11-29T21:25:15.741Z,922.00
2022-11-29T21:25:26.484Z,927.00
2022-11-29T21:25:37.222Z,926.00
2022-11-29T21:25:47.964Z,928.00
2022-11-29T21:25:58.710Z,929.00
2022-11-29T21:26:09.443Z,929.00
2022-11-29T21:26:20.192Z,930.00
2022-11-29T21:26:31.367Z,930.00
2022-11-29T21:26:42.438Z,927.00
2022-11-29T21:26:52.714Z,924.00
2022-11-29T21:27:03.452Z,923.00
2022-11-29T21:27:14.145Z,921.00
2022-11-29T21:27:24.831Z,921.00
2022-11-29T21:27:35.569Z,921.00
2022-11-29T21:27:46.309Z,922.00
2022-11-29T21:27:57.025Z,924.00
2022-11-29T21:28:07.694Z,926.00
2022-11-29T21:28:18.386Z,926.00
2022-11-29T21:28:29.123Z,927.00
2022-11-29T21:28:39.871Z,925.00
2022-11-29T21:28:50.617Z,924.00
2022-11-29T21:29:01.348Z,922.00
2022-11-29T21:29:12.073Z,919.00
2022-11-29T21:29:22.807Z,915.00
2022-11-29T21:29:33.544Z,913.00
2022-11-29T21:29:44.344Z,915.00
2022-11-29T21:29:55.078Z,918.00
2022-11-29T21:30:05.809Z,934.00
2022-11-29T21:30:16.552Z,943.00
2022-11-29T21:30:27.256Z,943.00
2022-11-29T21:30:37.928Z,938.00
2022-11-29T21:30:48.660Z,939.00
2022-11-29T21:30:59.382Z,938.00
2022-11-29T21:31:10.100Z,934.00
2022-11-29T21:31:20.769Z,931.00
2022-11-29T21:31:31.530Z,928.00
2022-11-29T21:31:42.339Z,924.00
2022-11-29T21:31:53.073Z,920.00
2022-11-29T21:32:03.814Z,917.00
2022-11-29T21:32:19.123Z,916.00
2022-11-29T21:32:25.014Z,916.00
2022-11-29T21:32:35.753Z,916.00
2022-11-29T21:32:46.481Z,913.00
2022-11-29T21:32:57.213Z,912.00
2022-11-29T21:33:07.952Z,913.00
2022-11-29T21:33:18.689Z,914.00
2022-11-29T21:33:29.437Z,914.00
2022-11-29T21:33:40.170Z,914.00
2022-11-29T21:33:50.866Z,912.00
2022-11-29T21:34:01.569Z,911.00
2022-11-29T21:34:12.323Z,911.00
2022-11-29T21:34:23.049Z,912.00
2022-11-29T21:34:33.781Z,914.00
2022-11-29T21:34:44.796Z,913.00
2022-11-29T21:34:55.146Z,912.00
2022-11-29T21:35:05.885Z,912.00
2022-11-29T21:35:16.625Z,912.00
2022-11-29T21:35:27.358Z,912.00
2022-11-29T21:35:38.089Z,912.00
2022-11-29T21:35:48.837Z,914.00
2022-11-29T21:35:59.529Z,914.00
2022-11-29T21:36:10.241Z,914.00
2022-11-29T21:36:20.926Z,915.00
2022-11-29T21:36:31.645Z,919.00
2022-11-29T21:36:42.324Z,929.00
2022-11-29T21:36:53.009Z,928.00
2022-11-29T21:37:03.767Z,926.00
2022-11-29T21:37:14.481Z,923.00
2022-11-29T21:37:25.133Z,921.00
2022-11-29T21:37:35.815Z,918.00
2022-11-29T21:37:46.542Z,931.00
2022-11-29T21:37:57.278Z,979.00
2022-11-29T21:38:08.089Z,966.00
2022-11-29T21:38:18.753Z,956.00
2022-11-29T21:38:29.481Z,959.00
2022-11-29T21:38:40.221Z,981.00
2022-11-29T21:38:54.853Z,990.00
2022-11-29T21:39:05.147Z,993.00
2022-11-29T21:39:12.195Z,987.00
2022-11-29T21:39:22.941Z,980.00
2022-11-29T21:39:33.737Z,975.00
2022-11-29T21:39:44.462Z,967.00
2022-11-29T21:39:55.225Z,971.00
2022-11-29T21:40:05.993Z,981.00
2022-11-29T21:40:16.745Z,980.00
2022-11-29T21:40:27.523Z,974.00
2022-11-29T21:40:38.241Z,966.00
2022-11-29T21:40:48.984Z,964.00
2022-11-29T21:40:59.726Z,959.00
2022-11-29T21:41:10.467Z,953.00
2022-11-29T21:41:21.194Z,941.00
2022-11-29T21:41:31.940Z,930.00
2022-11-29T21:41:42.685Z,922.00
2022-11-29T21:41:53.414Z,917.00
2022-11-29T21:42:04.147Z,915.00
2022-11-29T21:42:14.883Z,909.00
2022-11-29T21:42:25.634Z,907.00
2022-11-29T21:42:36.363Z,906.00
2022-11-29T21:42:47.100Z,904.00
2022-11-29T21:42:57.827Z,904.00
2022-11-29T21:43:08.567Z,902.00
2022-11-29T21:43:20.716Z,901.00
2022-11-29T21:43:57.980Z,899.00
2022-11-29T21:44:09.789Z,898.00
2022-11-29T21:44:15.028Z,895.00
2022-11-29T21:44:25.749Z,894.00
2022-11-29T21:44:36.487Z,893.00
2022-11-29T21:44:47.613Z,891.00
2022-11-29T21:44:57.942Z,891.00
2022-11-29T21:45:14.827Z,889.00
2022-11-29T21:45:19.969Z,888.00
2022-11-29T21:45:30.203Z,887.00
2022-11-29T21:45:40.943Z,886.00
2022-11-29T21:45:51.727Z,886.00
2022-11-29T21:46:02.524Z,885.00
2022-11-29T21:46:13.327Z,886.00
2022-11-29T21:46:24.141Z,886.00
2022-11-29T21:46:34.970Z,886.00
2022-11-29T21:46:45.471Z,886.00
2022-11-29T21:46:56.287Z,886.00
2022-11-29T21:47:07.046Z,885.00
2022-11-29T21:47:17.778Z,885.00
2022-11-29T21:47:28.550Z,883.00
2022-11-29T21:47:39.271Z,881.00
2022-11-29T21:47:50.014Z,881.00
2022-11-29T21:48:00.754Z,880.00
2022-11-29T21:48:11.482Z,879.00
2022-11-29T21:48:22.218Z,878.00
2022-11-29T21:48:32.951Z,876.00
2022-11-29T21:48:43.683Z,875.00
2022-11-29T21:48:54.411Z,872.00
2022-11-29T21:49:05.160Z,870.00
2022-11-29T21:49:15.899Z,868.00
2022-11-29T21:49:26.630Z,868.00
2022-11-29T21:49:37.367Z,868.00
2022-11-29T21:49:48.110Z,866.00
2022-11-29T21:49:58.855Z,864.00
2022-11-29T21:50:09.594Z,863.00
2022-11-29T21:50:20.335Z,863.00
2022-11-29T21:50:31.102Z,862.00
2022-11-29T21:50:41.839Z,860.00
2022-11-29T21:50:52.570Z,859.00
2022-11-29T21:51:03.306Z,857.00
2022-11-29T21:51:14.054Z,856.00
2022-11-29T21:51:24.800Z,854.00
2022-11-29T21:51:35.526Z,852.00
2022-11-29T21:51:46.268Z,851.00
2022-11-29T21:51:57.007Z,848.00
2022-11-29T21:52:07.751Z,847.00
2022-11-29T21:52:22.565Z,845.00
2022-11-29T21:52:29.235Z,845.00
2022-11-29T21:52:39.984Z,844.00
2022-11-29T21:52:50.719Z,842.00
2022-11-29T21:53:01.463Z,841.00
2022-11-29T21:53:12.210Z,840.00
2022-11-29T21:53:22.941Z,839.00
2022-11-29T21:53:33.683Z,838.00
2022-11-29T21:53:44.427Z,838.00
2022-11-29T21:53:55.158Z,837.00
2022-11-29T21:54:05.891Z,835.00
2022-11-29T21:54:16.619Z,835.00
2022-11-29T21:54:27.366Z,835.00
2022-11-29T21:54:38.115Z,835.00
2022-11-29T21:54:49.154Z,835.00
2022-11-29T21:54:59.407Z,834.00
2022-11-29T21:55:10.171Z,833.00
2022-11-29T21:55:20.908Z,833.00
2022-11-29T21:55:32.522Z,831.00
2022-11-29T21:55:42.368Z,829.00
2022-11-29T21:55:53.128Z,828.00
2022-11-29T21:56:03.872Z,826.00
2022-11-29T21:56:14.613Z,826.00
2022-11-29T21:56:25.365Z,824.00
2022-11-29T21:56:36.107Z,823.00
2022-11-29T21:56:46.864Z,822.00
2022-11-29T21:56:57.603Z,823.00
2022-11-29T21:57:08.335Z,822.00
2022-11-29T21:57:19.094Z,821.00
2022-11-29T21:57:29.828Z,820.00
2022-11-29T21:57:40.565Z,820.00
2022-11-29T21:57:51.296Z,820.00
2022-11-29T21:58:02.040Z,819.00
2022-11-29T21:58:12.780Z,819.00
2022-11-29T21:58:23.521Z,818.00
2022-11-29T21:58:34.248Z,817.00
2022-11-29T21:58:44.986Z,817.00
2022-11-29T21:58:55.717Z,817.00
2022-11-29T21:59:06.472Z,817.00
2022-11-29T21:59:17.206Z,817.00
2022-11-29T21:59:27.947Z,816.00
2022-11-29T21:59:38.680Z,815.00
2022-11-29T21:59:49.432Z,815.00
2022-11-29T22:00:00.183Z,816.00
2022-11-29T22:00:10.943Z,816.00
2022-11-29T22:00:21.692Z,817.00
2022-11-29T22:00:37.309Z,816.00
2022-11-29T22:00:43.088Z,815.00
2022-11-29T22:00:53.829Z,814.00
2022-11-29T22:01:04.575Z,813.00
2022-11-29T22:01:15.441Z,813.00
2022-11-29T22:01:26.177Z,813.00
2022-11-29T22:01:36.921Z,812.00
2022-11-29T22:01:47.794Z,812.00
2022-11-29T22:01:58.679Z,811.00
2022-11-29T22:02:09.647Z,810.00
2022-11-29T22:02:20.539Z,809.00
2022-11-29T22:02:31.435Z,809.00
2022-11-29T22:02:42.343Z,808.00
2022-11-29T22:02:53.187Z,808.00
2022-11-29T22:03:04.073Z,808.00
2022-11-29T22:03:14.829Z,807.00
2022-11-29T22:03:25.617Z,807.00
2022-11-29T22:03:36.325Z,806.00
2022-11-29T22:03:47.067Z,806.00
2022-11-29T22:03:57.801Z,806.00
2022-11-29T22:04:08.576Z,808.00
2022-11-29T22:04:19.310Z,809.00
2022-11-29T22:04:30.048Z,809.00
2022-11-29T22:04:40.797Z,811.00
2022-11-29T22:04:51.525Z,813.00
2022-11-29T22:05:02.263Z,813.00
2022-11-29T22:05:13.028Z,813.00
2022-11-29T22:05:23.761Z,813.00
2022-11-29T22:05:34.520Z,812.00
2022-11-29T22:05:45.256Z,812.00
2022-11-29T22:05:56.037Z,811.00
2022-11-29T22:06:06.768Z,812.00
2022-11-29T22:06:17.500Z,813.00
2022-11-29T22:06:28.237Z,813.00
2022-11-29T22:06:38.976Z,813.00
2022-11-29T22:06:49.721Z,812.00
2022-11-29T22:07:00.456Z,811.00
2022-11-29T22:07:11.208Z,809.00
2022-11-29T22:07:21.986Z,808.00
2022-11-29T22:07:32.763Z,807.00
2022-11-29T22:07:43.546Z,805.00
2022-11-29T22:07:54.310Z,803.00
2022-11-29T22:08:05.034Z,804.00
2022-11-29T22:08:15.772Z,803.00
2022-11-29T22:08:26.522Z,802.00
2022-11-29T22:08:37.245Z,803.00
2022-11-29T22:08:47.993Z,804.00
2022-11-29T22:08:58.751Z,805.00
2022-11-29T22:09:09.454Z,805.00
2022-11-29T22:09:20.193Z,804.00
2022-11-29T22:09:30.933Z,802.00
2022-11-29T22:09:41.673Z,801.00
2022-11-29T22:09:52.414Z,799.00
2022-11-29T22:10:06.082Z,799.00
2022-11-29T22:10:14.636Z,798.00
2022-11-29T22:10:24.385Z,797.00
2022-11-29T22:10:35.131Z,797.00
2022-11-29T22:10:45.861Z,797.00
2022-11-29T22:10:56.593Z,796.00
2022-11-29T22:11:07.336Z,796.00
2022-11-29T22:11:18.077Z,795.00
2022-11-29T22:11:28.813Z,795.00
2022-11-29T22:11:39.549Z,796.00
2022-11-29T22:11:50.282Z,796.00
2022-11-29T22:12:06.622Z,796.00
2022-11-29T22:12:34.209Z,797.00
2022-11-29T22:12:42.853Z,795.00
2022-11-29T22:12:52.593Z,793.00
2022-11-29T22:13:00.572Z,790.00
2022-11-29T22:13:11.290Z,787.00
2022-11-29T22:13:22.042Z,786.00
2022-11-29T22:13:32.786Z,785.00
2022-11-29T22:13:43.528Z,784.00
2022-11-29T22:13:54.297Z,784.00
2022-11-29T22:14:04.995Z,782.00
2022-11-29T22:14:15.744Z,782.00
2022-11-29T22:14:26.482Z,781.00
2022-11-29T22:14:37.225Z,780.00
2022-11-29T22:14:48.225Z,780.00
2022-11-29T22:14:58.582Z,780.00
2022-11-29T22:15:09.325Z,779.00
2022-11-29T22:15:24.498Z,778.00
2022-11-29T22:15:30.907Z,778.00
2022-11-29T22:15:41.736Z,777.00
2022-11-29T22:15:52.517Z,775.00
2022-11-29T22:16:03.281Z,774.00
2022-11-29T22:16:14.006Z,773.00
2022-11-29T22:16:24.826Z,771.00
2022-11-29T22:16:35.533Z,769.00
2022-11-29T22:16:46.266Z,769.00
2022-11-29T22:16:57.037Z,767.00
2022-11-29T22:17:07.742Z,765.00
2022-11-29T22:17:18.508Z,764.00
2022-11-29T22:17:29.220Z,763.00
2022-11-29T22:17:39.958Z,763.00
2022-11-29T22:17:50.694Z,762.00
2022-11-29T22:18:01.434Z,763.00
2022-11-29T22:18:12.176Z,763.00
2022-11-29T22:18:22.915Z,763.00
2022-11-29T22:18:33.658Z,764.00
2022-11-29T22:18:44.390Z,766.00
2022-11-29T22:18:55.124Z,768.00
2022-11-29T22:19:05.865Z,770.00
2022-11-29T22:19:16.600Z,771.00
2022-11-29T22:19:27.339Z,771.00
2022-11-29T22:19:38.074Z,770.00
2022-11-29T22:19:48.814Z,770.00
2022-11-29T22:19:59.551Z,770.00
2022-11-29T22:20:10.284Z,769.00
2022-11-29T22:20:21.062Z,768.00
2022-11-29T22:20:31.794Z,768.00
2022-11-29T22:20:42.527Z,768.00
2022-11-29T22:20:53.271Z,768.00
2022-11-29T22:21:04.014Z,768.00
2022-11-29T22:21:14.752Z,769.00
2022-11-29T22:21:25.482Z,769.00
2022-11-29T22:21:36.215Z,767.00
2022-11-29T22:21:46.966Z,767.00
2022-11-29T22:21:57.713Z,766.00
2022-11-29T22:22:08.443Z,767.00
2022-11-29T22:22:19.191Z,767.00
2022-11-29T22:22:29.930Z,767.00
2022-11-29T22:22:40.668Z,766.00
2022-11-29T22:22:55.734Z,766.00
2022-11-29T22:23:02.988Z,765.00
2022-11-29T22:23:12.728Z,766.00
2022-11-29T22:23:23.471Z,766.00
2022-11-29T22:23:34.213Z,766.00
2022-11-29T22:23:44.951Z,767.00
2022-11-29T22:23:55.687Z,767.00
2022-11-29T22:24:06.415Z,767.00
2022-11-29T22:24:17.171Z,767.00
2022-11-29T22:24:27.891Z,767.00
2022-11-29T22:24:38.631Z,766.00
2022-11-29T22:24:49.730Z,765.00
2022-11-29T22:25:00.120Z,765.00
2022-11-29T22:25:10.860Z,765.00
2022-11-29T22:25:21.626Z,765.00
2022-11-29T22:25:32.359Z,765.00
2022-11-29T22:25:43.099Z,766.00
2022-11-29T22:25:53.847Z,765.00
2022-11-29T22:26:04.594Z,765.00
2022-11-29T22:26:15.339Z,764.00
2022-11-29T22:26:26.075Z,765.00
2022-11-29T22:26:36.799Z,764.00
2022-11-29T22:26:47.532Z,763.00
2022-11-29T22:26:58.263Z,762.00
2022-11-29T22:27:08.999Z,761.00
2022-11-29T22:27:19.744Z,762.00
2022-11-29T22:27:30.492Z,761.00
2022-11-29T22:27:41.220Z,761.00
2022-11-29T22:27:51.956Z,760.00
2022-11-29T22:28:02.696Z,758.00
2022-11-29T22:28:13.427Z,759.00
2022-11-29T22:28:24.171Z,758.00
2022-11-29T22:28:34.931Z,758.00
2022-11-29T22:28:45.676Z,757.00
2022-11-29T22:28:56.416Z,758.00
2022-11-29T22:29:07.165Z,759.00
2022-11-29T22:29:17.891Z,759.00
2022-11-29T22:29:28.631Z,758.00
2022-11-29T22:29:39.367Z,758.00
2022-11-29T22:29:50.127Z,758.00
2022-11-29T22:30:00.973Z,758.00
2022-11-29T22:30:11.668Z,757.00
2022-11-29T22:30:22.416Z,759.00
2022-11-29T22:30:33.158Z,759.00
2022-11-29T22:30:43.897Z,759.00
2022-11-29T22:30:54.640Z,758.00
2022-11-29T22:31:05.504Z,756.00
2022-11-29T22:31:16.320Z,754.00
2022-11-29T22:31:27.134Z,753.00
2022-11-29T22:31:37.934Z,751.00
2022-11-29T22:31:48.794Z,749.00
2022-11-29T22:31:59.619Z,748.00
2022-11-29T22:32:10.333Z,748.00
2022-11-29T22:32:21.102Z,747.00
2022-11-29T22:32:31.811Z,747.00
2022-11-29T22:32:42.556Z,746.00
2022-11-29T22:32:53.304Z,747.00
2022-11-29T22:33:05.782Z,748.00
2022-11-29T22:33:14.650Z,747.00
2022-11-29T22:33:25.385Z,748.00
2022-11-29T22:33:36.120Z,748.00
2022-11-29T22:33:46.865Z,749.00
2022-11-29T22:33:57.596Z,748.00
2022-11-29T22:34:08.330Z,746.00
2022-11-29T22:34:19.064Z,745.00
2022-11-29T22:34:29.829Z,743.00
2022-11-29T22:34:40.552Z,743.00
2022-11-29T22:34:51.288Z,744.00
2022-11-29T22:35:02.030Z,745.00
2022-11-29T22:35:12.762Z,745.00
2022-11-29T22:35:23.511Z,746.00
2022-11-29T22:35:34.237Z,747.00
2022-11-29T22:35:45.013Z,746.00
2022-11-29T22:35:55.717Z,746.00
2022-11-29T22:36:06.480Z,746.00
2022-11-29T22:36:17.224Z,745.00
2022-11-29T22:36:27.977Z,743.00
2022-11-29T22:36:38.701Z,742.00
2022-11-29T22:36:49.442Z,742.00
2022-11-29T22:37:00.182Z,741.00
2022-11-29T22:37:10.913Z,741.00
2022-11-29T22:37:21.661Z,742.00
2022-11-29T22:37:32.380Z,743.00
2022-11-29T22:37:43.132Z,743.00
2022-11-29T22:37:53.845Z,742.00
2022-11-29T22:38:04.658Z,742.00
2022-11-29T22:38:15.390Z,741.00
2022-11-29T22:38:26.145Z,740.00
2022-11-29T22:38:36.877Z,740.00
2022-11-29T22:38:47.614Z,739.00
2022-11-29T22:38:58.357Z,739.00
2022-11-29T22:39:09.094Z,739.00
2022-11-29T22:39:19.837Z,738.00
2022-11-29T22:39:30.580Z,738.00
2022-11-29T22:39:41.341Z,736.00
2022-11-29T22:39:52.072Z,736.00
2022-11-29T22:40:02.840Z,735.00
2022-11-29T22:40:13.581Z,736.00
2022-11-29T22:40:24.321Z,735.00
2022-11-29T22:40:35.061Z,734.00
2022-11-29T22:40:45.796Z,735.00
2022-11-29T22:40:56.534Z,734.00
2022-11-29T22:41:07.278Z,734.00
2022-11-29T22:41:18.017Z,734.00
2022-11-29T22:41:28.757Z,733.00
2022-11-29T22:41:39.508Z,731.00
2022-11-29T22:41:54.292Z,730.00
2022-11-29T22:42:00.825Z,730.00
2022-11-29T22:42:11.602Z,730.00
2022-11-29T22:42:22.321Z,731.00
2022-11-29T22:42:33.062Z,731.00
2022-11-29T22:42:43.805Z,731.00
2022-11-29T22:42:54.546Z,730.00
2022-11-29T22:43:05.290Z,731.00
2022-11-29T22:43:16.002Z,731.00
2022-11-29T22:43:26.742Z,730.00
2022-11-29T22:43:37.496Z,728.00
2022-11-29T22:43:48.225Z,730.00
2022-11-29T22:43:58.961Z,731.00
2022-11-29T22:44:09.711Z,731.00
2022-11-29T22:44:20.455Z,730.00
2022-11-29T22:44:31.202Z,730.00
2022-11-29T22:44:41.946Z,730.00
2022-11-29T22:44:52.687Z,729.00
2022-11-29T22:45:03.439Z,730.00
2022-11-29T22:45:14.200Z,729.00
2022-11-29T22:45:24.930Z,728.00
2022-11-29T22:45:35.657Z,730.00
2022-11-29T22:45:46.414Z,729.00
2022-11-29T22:45:57.165Z,729.00
2022-11-29T22:46:07.902Z,729.00
2022-11-29T22:46:18.682Z,730.00
2022-11-29T22:46:29.420Z,727.00
2022-11-29T22:46:40.215Z,725.00
2022-11-29T22:46:51.081Z,722.00
2022-11-29T22:47:01.984Z,720.00
2022-11-29T22:47:12.702Z,719.00
2022-11-29T22:47:23.406Z,717.00
2022-11-29T22:47:34.200Z,716.00
2022-11-29T22:47:44.939Z,715.00
2022-11-29T22:47:55.674Z,713.00
2022-11-29T22:48:06.416Z,713.00
2022-11-29T22:48:17.161Z,713.00
2022-11-29T22:48:27.903Z,713.00
2022-11-29T22:48:39.260Z,712.00
2022-11-29T22:48:49.513Z,712.00
2022-11-29T22:49:00.255Z,714.00
2022-11-29T22:49:10.986Z,714.00
2022-11-29T22:49:21.726Z,715.00
2022-11-29T22:49:32.478Z,716.00
2022-11-29T22:49:43.206Z,716.00
2022-11-29T22:49:53.938Z,715.00
2022-11-29T22:50:04.711Z,717.00
2022-11-29T22:50:15.454Z,717.00
2022-11-29T22:50:26.186Z,718.00
2022-11-29T22:50:36.918Z,718.00
2022-11-29T22:50:47.667Z,717.00
2022-11-29T22:50:58.403Z,717.00
2022-11-29T22:51:09.144Z,715.00
2022-11-29T22:51:19.887Z,714.00
2022-11-29T22:51:30.635Z,714.00
2022-11-29T22:51:41.362Z,713.00
2022-11-29T22:51:52.099Z,714.00
2022-11-29T22:52:02.847Z,714.00
2022-11-29T22:52:13.586Z,714.00
2022-11-29T22:52:24.339Z,713.00
2022-11-29T22:52:35.078Z,714.00
2022-11-29T22:52:45.822Z,713.00
2022-11-29T22:52:56.563Z,713.00
2022-11-29T22:53:07.364Z,712.00
2022-11-29T22:53:18.111Z,710.00
2022-11-29T22:53:28.845Z,709.00
2022-11-29T22:53:39.591Z,709.00
2022-11-29T22:53:50.336Z,709.00
2022-11-29T22:54:01.075Z,708.00
2022-11-29T22:54:11.939Z,706.00
2022-11-29T22:54:22.626Z,706.00
2022-11-29T22:54:33.363Z,707.00
2022-11-29T22:54:44.336Z,707.00
2022-11-29T22:54:56.730Z,708.00
2022-11-29T22:55:05.539Z,707.00
2022-11-29T22:55:16.279Z,708.00
2022-11-29T22:55:27.028Z,707.00
2022-11-29T22:55:37.766Z,706.00
2022-11-29T22:55:48.503Z,704.00
2022-11-29T22:55:59.239Z,704.00
2022-11-29T22:56:09.993Z,703.00
2022-11-29T22:56:20.745Z,702.00
2022-11-29T22:56:31.487Z,702.00
2022-11-29T22:56:42.219Z,701.00
2022-11-29T22:56:52.959Z,700.00
2022-11-29T22:57:03.697Z,698.00
2022-11-29T22:57:14.444Z,699.00
2022-11-29T22:57:25.187Z,697.00
2022-11-29T22:57:35.924Z,697.00
2022-11-29T22:57:46.651Z,696.00
2022-11-29T22:57:57.390Z,695.00
2022-11-29T22:58:08.120Z,696.00
2022-11-29T22:58:18.875Z,697.00
2022-11-29T22:58:29.617Z,699.00
2022-11-29T22:58:40.356Z,699.00
2022-11-29T22:58:51.099Z,700.00
2022-11-29T22:59:01.840Z,701.00
2022-11-29T22:59:12.592Z,701.00
2022-11-29T22:59:23.327Z,701.00
2022-11-29T22:59:34.062Z,701.00
2022-11-29T22:59:44.800Z,700.00
2022-11-29T22:59:55.540Z,700.00
2022-11-29T23:00:06.286Z,700.00
2022-11-29T23:00:17.033Z,698.00
2022-11-29T23:00:27.797Z,696.00
2022-11-29T23:00:38.606Z,695.00
2022-11-29T23:00:49.392Z,695.00
2022-11-29T23:01:00.200Z,695.00
2022-11-29T23:01:10.986Z,696.00
2022-11-29T23:01:21.872Z,696.00
2022-11-29T23:01:32.581Z,695.00
2022-11-29T23:01:43.420Z,695.00
2022-11-29T23:01:54.243Z,694.00
2022-11-29T23:02:05.012Z,694.00
2022-11-29T23:02:15.775Z,693.00
2022-11-29T23:02:26.568Z,692.00
2022-11-29T23:02:37.318Z,692.00
2022-11-29T23:02:48.028Z,693.00
2022-11-29T23:02:58.777Z,693.00
2022-11-29T23:03:09.532Z,693.00
2022-11-29T23:03:20.248Z,694.00
2022-11-29T23:03:30.981Z,693.00
2022-11-29T23:03:41.720Z,693.00
2022-11-29T23:03:52.465Z,691.00
2022-11-29T23:04:03.205Z,691.00
2022-11-29T23:04:13.941Z,691.00
2022-11-29T23:04:24.669Z,689.00
2022-11-29T23:04:35.427Z,689.00
2022-11-29T23:04:46.422Z,690.00
2022-11-29T23:04:56.794Z,689.00
2022-11-29T23:05:07.533Z,689.00
2022-11-29T23:05:18.269Z,690.00
2022-11-29T23:05:32.239Z,688.00
2022-11-29T23:05:39.806Z,688.00
2022-11-29T23:05:50.538Z,686.00
2022-11-29T23:06:01.293Z,685.00
2022-11-29T23:06:12.048Z,685.00
2022-11-29T23:06:22.761Z,685.00
2022-11-29T23:06:33.500Z,685.00
2022-11-29T23:06:44.227Z,684.00
2022-11-29T23:06:55.049Z,683.00
2022-11-29T23:07:05.789Z,682.00
2022-11-29T23:07:16.633Z,681.00
2022-11-29T23:07:27.484Z,680.00
2022-11-29T23:07:38.266Z,679.00
2022-11-29T23:07:49.004Z,679.00
2022-11-29T23:07:59.774Z,678.00
2022-11-29T23:08:10.520Z,678.00
2022-11-29T23:08:21.265Z,678.00
2022-11-29T23:08:32.009Z,678.00
2022-11-29T23:08:42.749Z,678.00
2022-11-29T23:08:53.498Z,678.00
2022-11-29T23:09:04.229Z,679.00
2022-11-29T23:09:14.969Z,680.00
2022-11-29T23:09:25.701Z,680.00
2022-11-29T23:09:36.448Z,679.00
2022-11-29T23:09:47.173Z,679.00
2022-11-29T23:09:57.925Z,677.00
2022-11-29T23:10:08.664Z,677.00
2022-11-29T23:10:19.396Z,677.00
2022-11-29T23:10:30.137Z,678.00
2022-11-29T23:10:40.869Z,678.00
2022-11-29T23:10:51.613Z,677.00
2022-11-29T23:11:02.357Z,677.00
2022-11-29T23:11:13.088Z,676.00
2022-11-29T23:11:23.833Z,675.00
2022-11-29T23:11:34.570Z,675.00
2022-11-29T23:11:45.310Z,674.00
2022-11-29T23:11:56.090Z,674.00
2022-11-29T23:12:06.846Z,672.00
2022-11-29T23:12:17.578Z,672.00
2022-11-29T23:12:28.324Z,672.00
2022-11-29T23:12:39.069Z,673.00
2022-11-29T23:12:49.820Z,673.00
2022-11-29T23:13:00.549Z,673.00
2022-11-29T23:13:11.288Z,673.00
2022-11-29T23:13:22.038Z,673.00
2022-11-29T23:13:32.774Z,675.00
2022-11-29T23:13:43.521Z,675.00
2022-11-29T23:13:54.261Z,675.00
2022-11-29T23:14:05.001Z,674.00
2022-11-29T23:14:15.721Z,674.00
2022-11-29T23:14:26.449Z,673.00
2022-11-29T23:14:37.197Z,674.00
2022-11-29T23:14:52.974Z,673.00
2022-11-29T23:15:00.454Z,673.00
2022-11-29T23:15:09.179Z,672.00
2022-11-29T23:15:19.909Z,672.00
2022-11-29T23:15:30.644Z,673.00
2022-11-29T23:15:41.386Z,672.00
2022-11-29T23:15:52.110Z,672.00
2022-11-29T23:16:02.886Z,673.00
2022-11-29T23:16:13.663Z,673.00
2022-11-29T23:16:24.388Z,674.00
2022-11-29T23:16:35.173Z,674.00
2022-11-29T23:16:45.944Z,673.00
2022-11-29T23:16:56.712Z,673.00
2022-11-29T23:17:07.478Z,672.00
2022-11-29T23:17:18.189Z,672.00
2022-11-29T23:17:28.942Z,672.00
2022-11-29T23:17:39.694Z,671.00
2022-11-29T23:17:50.420Z,670.00
2022-11-29T23:18:01.164Z,669.00
2022-11-29T23:18:11.894Z,668.00
2022-11-29T23:18:22.639Z,667.00
2022-11-29T23:18:33.391Z,664.00
2022-11-29T23:18:44.142Z,664.00
2022-11-29T23:18:54.892Z,665.00
2022-11-29T23:19:05.630Z,663.00
2022-11-29T23:19:16.383Z,663.00
2022-11-29T23:19:27.114Z,662.00
2022-11-29T23:19:37.846Z,662.00
2022-11-29T23:19:48.590Z,663.00
2022-11-29T23:19:59.338Z,662.00
2022-11-29T23:20:10.074Z,662.00
2022-11-29T23:20:20.802Z,662.00
2022-11-29T23:20:31.547Z,661.00
2022-11-29T23:20:42.278Z,660.00
2022-11-29T23:20:53.019Z,661.00
2022-11-29T23:21:03.759Z,663.00
2022-11-29T23:21:14.502Z,663.00
2022-11-29T23:21:25.242Z,665.00
2022-11-29T23:21:35.995Z,664.00
2022-11-29T23:21:46.718Z,664.00
2022-11-29T23:21:57.487Z,663.00
2022-11-29T23:22:08.226Z,663.00
2022-11-29T23:22:19.003Z,662.00
2022-11-29T23:22:29.746Z,662.00
2022-11-29T23:22:40.495Z,661.00
2022-11-29T23:22:51.242Z,660.00
2022-11-29T23:23:01.975Z,659.00
2022-11-29T23:23:12.705Z,659.00
2022-11-29T23:23:23.447Z,658.00
2022-11-29T23:23:34.169Z,658.00
2022-11-29T23:23:44.907Z,657.00
2022-11-29T23:23:56.811Z,658.00
2022-11-29T23:24:06.217Z,656.00
2022-11-29T23:24:16.947Z,657.00